Ana Sayfa
METAR-TAF:

METAR-TAF

Havaalanları :

Rosecrans Memorial Airport

Saint Joseph, Missouri, Amerika Birleşik Devletleri

Enlem: 39-46-05N, Boylam: 094-54-33W, yükseklik: 251 m

Güncel hava durumu gözlemi

Rapor saat 05:53 UTC de 48 dakika önce yapıldı.
Rüzgar kuzey/kuzeydoğudan 4 kt
Sıcaklık 19°C
Nem 94%
Basınç 1008 hPa
Görüş mesafesi: 16.1 km
Açık gökyüzü

METAR: KSTJ 270553Z AUTO 02004KT 10SM CLR 19/18 A2976 RMK AO2 SLP070 60000 T01940178 10272 20189 402780167 51022

Saat: 01:41 (06:41 UTC)

Tahmin

Rapor saat 05:25 UTC de 1 saat ve 16 dakika önce yapıldı.
Ayın 27'si saat 06 UTC'den ayın 28'si saat 06 UTC'ye kadar geçerli Tahmin
Rüzgar batı/kuzeybatıdan 8 kt
Görüş mesafesi: 10 km
25000 ft yükseklikte az bulutlu

TAF: KSTJ 270525Z 2706/2806 30008KT P6SM FEW250

4.000'den fazla havaalanı için hava durumu gözlemleri ve tahminleri (METAR ve TAF raporları).

Kullanılabilir istasyonlar harita üzerinde sarı ve kırmızı noktalarla gösterilir.

İstasyonun adını görmek için fareyi noktanın üzerinde gezdirin.

Sonrasında hava gözlem ve tahminlerini görmek için tıklayın.

Haritayı değiştirmek için: yaklaştırmak için siyah artı işaretli yeşil düğmeye ve uzaklaştırmak için de eksi işaretli düğmeye hızla tıklayın; bitişik haritalar için yeşil okları kullanın.


METAR-TAF: